Time,TemperatureF,DewpointF,PressureIn,WindDirection,WindDirectionDegrees,WindSpeedMPH,WindSpeedGustMPH,Humidity,HourlyPrecipIn,Conditions,Clouds,dailyrainin,SoftwareType,DateUTC
2013-05-26 00:00:00,52.4,43.6,30.20,SW,223,0.0,0.0,72,0.00,,,0.00,Wunderground v.1.15,2013-05-26 04:00:00,
2013-05-26 00:05:00,52.1,43.0,30.20,SW,223,0.0,0.0,71,0.00,,,0.00,Wunderground v.1.15,2013-05-26 04:05:00,
2013-05-26 00:10:00,52.1,43.3,30.20,SW,223,0.0,0.0,72,0.00,,,0.00,Wunderground v.1.15,2013-05-26 04:10:00,
2013-05-26 00:15:00,52.0,43.6,30.19,SW,223,0.0,0.0,73,0.00,,,0.00,Wunderground v.1.15,2013-05-26 04:15:00,
2013-05-26 00:20:00,51.8,42.7,30.20,SW,223,0.0,0.0,71,0.00,,,0.00,Wunderground v.1.15,2013-05-26 04:20:00,
2013-05-26 00:30:00,52.0,44.3,30.20,SW,223,0.0,0.0,75,0.00,,,0.00,Wunderground v.1.15,2013-05-26 04:30:00,
2013-05-26 00:35:00,52.0,43.6,30.20,SW,223,0.0,0.0,73,0.00,,,0.00,Wunderground v.1.15,2013-05-26 04:35:00,
2013-05-26 00:40:00,51.7,43.3,30.20,SW,223,0.0,0.0,73,0.00,,,0.00,Wunderground v.1.15,2013-05-26 04:40:00,
2013-05-26 00:45:00,51.4,42.3,30.20,SW,223,0.0,0.0,71,0.00,,,0.00,Wunderground v.1.15,2013-05-26 04:45:00,
2013-05-26 00:55:00,51.3,43.3,30.21,SW,223,0.0,0.0,74,0.00,,,0.00,Wunderground v.1.15,2013-05-26 04:55:00,
2013-05-26 01:00:00,51.3,43.3,30.21,SW,223,0.0,0.0,74,0.00,,,0.00,Wunderground v.1.15,2013-05-26 05:00:00,
2013-05-26 01:05:00,51.3,43.6,30.21,SW,223,0.0,0.0,75,0.00,,,0.00,Wunderground v.1.15,2013-05-26 05:05:00,
2013-05-26 01:10:00,51.1,43.4,30.21,SW,223,0.0,0.0,75,0.00,,,0.00,Wunderground v.1.15,2013-05-26 05:10:00,
2013-05-26 01:20:00,51.1,43.8,30.21,SW,223,0.0,0.0,76,0.00,,,0.00,Wunderground v.1.15,2013-05-26 05:20:00,
2013-05-26 01:25:00,51.1,44.1,30.21,SW,223,0.0,0.0,77,0.00,,,0.00,Wunderground v.1.15,2013-05-26 05:25:00,
2013-05-26 01:30:00,51.1,44.1,30.21,SW,223,0.0,0.0,77,0.00,,,0.00,Wunderground v.1.15,2013-05-26 05:30:00,
2013-05-26 01:35:00,51.0,43.0,30.21,SW,223,0.0,0.0,74,0.00,,,0.00,Wunderground v.1.15,2013-05-26 05:35:00,
2013-05-26 01:40:00,51.1,44.1,30.21,SW,223,0.0,0.0,77,0.00,,,0.00,Wunderground v.1.15,2013-05-26 05:40:00,
2013-05-26 01:45:00,51.1,43.8,30.21,SW,223,0.0,0.0,76,0.00,,,0.00,Wunderground v.1.15,2013-05-26 05:45:00,
2013-05-26 01:50:00,51.3,44.3,30.21,SW,223,0.0,0.0,77,0.00,,,0.00,Wunderground v.1.15,2013-05-26 05:50:00,
2013-05-26 01:55:00,51.3,44.7,30.21,SW,223,0.0,0.0,78,0.00,,,0.00,Wunderground v.1.15,2013-05-26 05:55:00,
2013-05-26 02:05:00,51.4,44.8,30.21,SW,223,0.0,0.0,78,0.00,,,0.00,Wunderground v.1.15,2013-05-26 06:05:00,
2013-05-26 02:10:00,51.6,45.3,30.21,SW,223,0.0,0.0,79,0.00,,,0.00,Wunderground v.1.15,2013-05-26 06:10:00,
2013-05-26 02:15:00,51.6,45.3,30.21,SW,223,0.0,0.0,79,0.00,,,0.00,Wunderground v.1.15,2013-05-26 06:15:00,
2013-05-26 02:20:00,51.7,45.4,30.21,SW,223,0.0,0.0,79,0.00,,,0.00,Wunderground v.1.15,2013-05-26 06:20:00,
2013-05-26 02:25:00,51.7,45.4,30.21,SW,223,0.0,0.0,79,0.00,,,0.00,Wunderground v.1.15,2013-05-26 06:25:00,
2013-05-26 02:30:00,51.7,45.7,30.21,SW,223,0.0,0.0,80,0.00,,,0.00,Wunderground v.1.15,2013-05-26 06:30:00,
2013-05-26 02:35:00,51.8,45.5,30.21,SW,223,0.0,0.0,79,0.00,,,0.00,Wunderground v.1.15,2013-05-26 06:35:00,
2013-05-26 02:40:00,51.8,45.2,30.21,SW,223,0.0,0.0,78,0.00,,,0.00,Wunderground v.1.15,2013-05-26 06:40:00,
2013-05-26 02:50:00,51.7,42.2,30.21,SW,223,0.0,0.0,70,0.00,,,0.00,Wunderground v.1.15,2013-05-26 06:50:00,
2013-05-26 02:55:00,51.8,41.9,30.20,SW,223,0.0,0.0,69,0.00,,,0.00,Wunderground v.1.15,2013-05-26 06:55:00,
2013-05-26 03:00:00,52.1,41.5,30.20,SW,223,0.0,0.0,67,0.00,,,0.00,Wunderground v.1.15,2013-05-26 07:00:00,
2013-05-26 03:05:00,52.4,38.9,30.20,SW,223,0.0,0.0,60,0.00,,,0.00,Wunderground v.1.15,2013-05-26 07:05:00,
2013-05-26 03:10:00,52.9,40.2,30.20,SW,223,0.0,0.0,62,0.00,,,0.00,Wunderground v.1.15,2013-05-26 07:10:00,
2013-05-26 03:15:00,53.2,42.1,30.20,SW,223,0.0,0.0,66,0.00,,,0.00,Wunderground v.1.15,2013-05-26 07:15:00,
2013-05-26 03:20:00,53.3,42.2,30.20,SW,223,0.0,0.0,66,0.00,,,0.00,Wunderground v.1.15,2013-05-26 07:20:00,
2013-05-26 03:25:00,53.5,39.9,30.20,SW,223,0.0,0.0,60,0.00,,,0.00,Wunderground v.1.15,2013-05-26 07:25:00,
2013-05-26 03:30:00,53.5,40.4,30.20,SW,223,0.0,0.0,61,0.00,,,0.00,Wunderground v.1.15,2013-05-26 07:30:00,
2013-05-26 03:35:00,53.6,40.5,30.19,SW,223,0.0,0.0,61,0.00,,,0.00,Wunderground v.1.15,2013-05-26 07:35:00,
2013-05-26 03:40:00,53.6,39.6,30.19,SW,223,0.0,0.0,59,0.00,,,0.00,Wunderground v.1.15,2013-05-26 07:40:00,
2013-05-26 03:45:00,53.8,41.9,30.20,SW,223,0.0,0.0,64,0.00,,,0.00,Wunderground v.1.15,2013-05-26 07:45:00,
2013-05-26 03:50:00,53.9,42.4,30.19,SW,223,0.0,0.0,65,0.00,,,0.00,Wunderground v.1.15,2013-05-26 07:50:00,
2013-05-26 03:55:00,53.8,41.1,30.19,SW,223,0.0,0.0,62,0.00,,,0.00,Wunderground v.1.15,2013-05-26 07:55:00,
2013-05-26 04:00:00,53.8,40.2,30.19,SW,223,0.0,0.0,60,0.00,,,0.00,Wunderground v.1.15,2013-05-26 08:00:00,
2013-05-26 04:05:00,53.8,38.9,30.20,SW,223,0.0,0.0,57,0.00,,,0.00,Wunderground v.1.15,2013-05-26 08:05:00,
2013-05-26 04:10:00,53.8,39.8,30.19,SW,223,0.0,0.0,59,0.00,,,0.00,Wunderground v.1.15,2013-05-26 08:10:00,
2013-05-26 04:15:00,53.8,39.4,30.19,SW,223,0.0,0.0,58,0.00,,,0.00,Wunderground v.1.15,2013-05-26 08:15:00,
2013-05-26 04:20:00,53.8,41.1,30.20,SW,223,0.0,0.0,62,0.00,,,0.00,Wunderground v.1.15,2013-05-26 08:20:00,
2013-05-26 04:25:00,53.6,40.0,30.20,SW,223,0.0,0.0,60,0.00,,,0.00,Wunderground v.1.15,2013-05-26 08:25:00,
2013-05-26 04:30:00,53.6,41.7,30.20,SW,223,0.0,0.0,64,0.00,,,0.00,Wunderground v.1.15,2013-05-26 08:30:00,
2013-05-26 04:35:00,53.3,41.0,30.20,SW,223,0.0,0.0,63,0.00,,,0.00,Wunderground v.1.15,2013-05-26 08:35:00,
2013-05-26 04:40:00,53.2,40.5,30.20,SW,223,0.0,0.0,62,0.00,,,0.00,Wunderground v.1.15,2013-05-26 08:40:00,
2013-05-26 04:45:00,53.0,41.5,30.20,SW,223,0.0,0.0,65,0.00,,,0.00,Wunderground v.1.15,2013-05-26 08:45:00,
2013-05-26 04:50:00,53.0,43.1,30.20,SW,223,0.0,0.0,69,0.00,,,0.00,Wunderground v.1.15,2013-05-26 08:50:00,
2013-05-26 04:55:00,52.9,41.8,30.20,SW,223,0.0,0.0,66,0.00,,,0.00,Wunderground v.1.15,2013-05-26 08:55:00,
2013-05-26 05:00:00,52.6,40.4,30.20,SW,223,0.0,0.0,63,0.00,,,0.00,Wunderground v.1.15,2013-05-26 09:00:00,
2013-05-26 05:05:00,52.6,41.6,30.20,SW,223,0.0,0.0,66,0.00,,,0.00,Wunderground v.1.15,2013-05-26 09:05:00,
2013-05-26 05:10:00,52.7,42.4,30.20,SW,223,0.0,0.0,68,0.00,,,0.00,Wunderground v.1.15,2013-05-26 09:10:00,
2013-05-26 05:15:00,52.7,42.4,30.20,SW,223,0.0,0.0,68,0.00,,,0.00,Wunderground v.1.15,2013-05-26 09:15:00,
2013-05-26 05:20:00,52.7,42.0,30.21,SW,223,0.0,0.0,67,0.00,,,0.00,Wunderground v.1.15,2013-05-26 09:20:00,
2013-05-26 05:30:00,52.7,40.0,30.22,SW,223,0.0,0.0,62,0.00,,,0.00,Wunderground v.1.15,2013-05-26 09:30:00,
2013-05-26 05:40:00,53.0,39.5,30.22,SW,223,0.0,0.0,60,0.00,,,0.00,Wunderground v.1.15,2013-05-26 09:40:00,
2013-05-26 05:45:00,53.2,42.5,30.22,SW,223,0.0,0.0,67,0.00,,,0.00,Wunderground v.1.15,2013-05-26 09:45:00,
2013-05-26 05:50:00,53.2,40.1,30.22,SW,223,0.0,0.0,61,0.00,,,0.00,Wunderground v.1.15,2013-05-26 09:50:00,
2013-05-26 06:00:00,53.3,39.8,30.22,SW,223,0.0,0.0,60,0.00,,,0.00,Wunderground v.1.15,2013-05-26 10:00:00,
2013-05-26 06:05:00,53.5,39.9,30.23,SW,223,0.0,0.0,60,0.00,,,0.00,Wunderground v.1.15,2013-05-26 10:05:00,
2013-05-26 06:10:00,53.5,40.8,30.23,SW,224,0.0,0.0,62,0.00,,,0.00,Wunderground v.1.15,2013-05-26 10:10:00,
2013-05-26 06:20:00,53.5,40.4,30.23,SW,224,0.0,0.0,61,0.00,,,0.00,Wunderground v.1.15,2013-05-26 10:20:00,
2013-05-26 06:25:00,53.3,40.6,30.23,SW,224,0.0,0.0,62,0.00,,,0.00,Wunderground v.1.15,2013-05-26 10:25:00,
2013-05-26 06:30:00,53.5,41.6,30.24,SW,225,0.0,0.0,64,0.00,,,0.00,Wunderground v.1.15,2013-05-26 10:30:00,
2013-05-26 06:40:00,53.5,42.4,30.24,SW,231,0.0,0.0,66,0.00,,,0.00,Wunderground v.1.15,2013-05-26 10:40:00,
2013-05-26 06:45:00,53.3,42.6,30.24,SW,231,0.0,0.0,67,0.00,,,0.00,Wunderground v.1.15,2013-05-26 10:45:00,
2013-05-26 06:50:00,53.3,41.8,30.24,SW,235,0.0,0.0,65,0.00,,,0.00,Wunderground v.1.15,2013-05-26 10:50:00,
2013-05-26 07:00:00,53.2,42.9,30.24,NNE,12,0.0,0.0,68,0.00,,,0.00,Wunderground v.1.15,2013-05-26 11:00:00,
2013-05-26 07:05:00,53.2,44.8,30.24,NNE,12,0.0,0.0,73,0.00,,,0.00,Wunderground v.1.15,2013-05-26 11:05:00,
2013-05-26 07:10:00,53.2,44.0,30.24,NNE,12,0.0,0.0,71,0.00,,,0.00,Wunderground v.1.15,2013-05-26 11:10:00,
2013-05-26 07:15:00,53.0,44.6,30.24,NNE,12,0.0,0.0,73,0.00,,,0.00,Wunderground v.1.15,2013-05-26 11:15:00,
2013-05-26 07:20:00,53.0,45.3,30.24,NNE,12,0.0,0.0,75,0.00,,,0.00,Wunderground v.1.15,2013-05-26 11:20:00,
2013-05-26 07:25:00,52.7,43.9,30.24,NNE,12,0.0,0.0,72,0.00,,,0.00,Wunderground v.1.15,2013-05-26 11:25:00,
2013-05-26 07:30:00,52.7,45.0,30.25,NNE,12,0.0,0.0,75,0.00,,,0.00,Wunderground v.1.15,2013-05-26 11:30:00,
2013-05-26 07:35:00,52.7,44.6,30.25,NNE,12,0.0,0.0,74,0.00,,,0.00,Wunderground v.1.15,2013-05-26 11:35:00,
2013-05-26 07:40:00,52.9,44.8,30.25,NNE,12,0.0,0.0,74,0.00,,,0.00,Wunderground v.1.15,2013-05-26 11:40:00,
2013-05-26 07:45:00,53.0,43.8,30.25,NNE,12,0.0,0.0,71,0.00,,,0.00,Wunderground v.1.15,2013-05-26 11:45:00,
2013-05-26 07:50:00,53.2,43.7,30.25,NNE,12,0.0,0.0,70,0.00,,,0.00,Wunderground v.1.15,2013-05-26 11:50:00,
2013-05-26 07:55:00,53.3,43.8,30.25,NNE,12,0.0,0.0,70,0.00,,,0.00,Wunderground v.1.15,2013-05-26 11:55:00,
2013-05-26 08:00:00,53.5,44.3,30.26,NNE,12,0.0,0.0,71,0.00,,,0.00,Wunderground v.1.15,2013-05-26 12:00:00,
2013-05-26 08:05:00,53.8,43.9,30.26,NNE,12,0.0,0.0,69,0.00,,,0.00,Wunderground v.1.15,2013-05-26 12:05:00,
2013-05-26 08:10:00,53.9,43.6,30.25,NNE,12,0.0,0.0,68,0.00,,,0.00,Wunderground v.1.15,2013-05-26 12:10:00,
2013-05-26 08:15:00,54.4,44.4,30.25,NNE,12,0.0,0.0,69,0.00,,,0.00,Wunderground v.1.15,2013-05-26 12:15:00,
2013-05-26 08:25:00,55.1,43.1,30.26,NNE,12,0.0,0.0,64,0.00,,,0.00,Wunderground v.1.15,2013-05-26 12:25:00,
2013-05-26 08:30:00,55.4,44.6,30.26,NNE,12,0.0,0.0,67,0.00,,,0.00,Wunderground v.1.15,2013-05-26 12:30:00,
2013-05-26 08:40:00,55.8,43.8,30.26,NNE,12,0.0,0.0,64,0.00,,,0.00,Wunderground v.1.15,2013-05-26 12:40:00,
2013-05-26 08:50:00,56.3,44.3,30.27,NNE,12,0.0,0.0,64,0.00,,,0.00,Wunderground v.1.15,2013-05-26 12:50:00,
2013-05-26 08:55:00,56.5,44.0,30.26,NNE,12,0.0,0.0,63,0.00,,,0.00,Wunderground v.1.15,2013-05-26 12:55:00,
2013-05-26 09:00:00,56.8,45.6,30.26,NNE,12,0.0,0.0,66,0.00,,,0.00,Wunderground v.1.15,2013-05-26 13:00:00,
2013-05-26 09:05:00,56.9,44.0,30.26,NNE,12,0.0,0.0,62,0.00,,,0.00,Wunderground v.1.15,2013-05-26 13:05:00,
2013-05-26 09:10:00,57.1,45.0,30.26,NNE,12,0.0,0.0,64,0.00,,,0.00,Wunderground v.1.15,2013-05-26 13:10:00,
2013-05-26 09:15:00,57.2,44.3,30.26,NNE,12,0.0,0.0,62,0.00,,,0.00,Wunderground v.1.15,2013-05-26 13:15:00,
2013-05-26 09:20:00,57.4,44.5,30.26,NNE,12,0.0,0.0,62,0.00,,,0.00,Wunderground v.1.15,2013-05-26 13:20:00,
2013-05-26 09:25:00,57.5,44.1,30.26,NNE,12,0.0,0.0,61,0.00,,,0.00,Wunderground v.1.15,2013-05-26 13:25:00,
2013-05-26 09:30:00,57.7,44.3,30.26,NNE,12,0.0,0.0,61,0.00,,,0.00,Wunderground v.1.15,2013-05-26 13:30:00,
2013-05-26 09:35:00,57.8,45.3,30.26,NNW,333,0.0,0.0,63,0.00,,,0.00,Wunderground v.1.15,2013-05-26 13:35:00,
2013-05-26 09:40:00,57.8,44.9,30.26,NNW,333,0.0,0.0,62,0.00,,,0.00,Wunderground v.1.15,2013-05-26 13:40:00,
2013-05-26 09:45:00,58.0,45.0,30.26,NNW,338,0.0,0.0,62,0.00,,,0.00,Wunderground v.1.15,2013-05-26 13:45:00,
2013-05-26 09:50:00,58.1,44.7,30.27,NNW,338,0.0,0.0,61,0.00,,,0.00,Wunderground v.1.15,2013-05-26 13:50:00,
2013-05-26 09:55:00,58.1,45.6,30.26,NNW,338,0.0,0.0,63,0.00,,,0.00,Wunderground v.1.15,2013-05-26 13:55:00,
2013-05-26 10:00:00,58.3,46.2,30.27,NNW,338,0.0,0.0,64,0.00,,,0.00,Wunderground v.1.15,2013-05-26 14:00:00,
2013-05-26 10:05:00,58.3,46.6,30.26,NNW,338,0.0,0.0,65,0.00,,,0.00,Wunderground v.1.15,2013-05-26 14:05:00,
2013-05-26 10:10:00,58.3,46.6,30.26,NNW,338,0.0,0.0,65,0.00,,,0.00,Wunderground v.1.15,2013-05-26 14:10:00,
2013-05-26 10:15:00,58.3,44.9,30.26,NNW,338,0.0,0.0,61,0.00,,,0.00,Wunderground v.1.15,2013-05-26 14:15:00,
2013-05-26 10:20:00,58.4,46.7,30.26,NNW,338,0.0,0.0,65,0.00,,,0.00,Wunderground v.1.15,2013-05-26 14:20:00,
2013-05-26 10:25:00,58.6,45.6,30.26,NNW,338,0.0,0.0,62,0.00,,,0.00,Wunderground v.1.15,2013-05-26 14:25:00,
2013-05-26 10:30:00,58.7,45.7,30.27,NNW,338,0.0,0.0,62,0.00,,,0.00,Wunderground v.1.15,2013-05-26 14:30:00,
2013-05-26 10:35:00,58.9,45.5,30.27,NNW,338,0.0,0.0,61,0.00,,,0.00,Wunderground v.1.15,2013-05-26 14:35:00,
2013-05-26 10:40:00,59.0,45.6,30.26,NW,313,0.0,0.0,61,0.00,,,0.00,Wunderground v.1.15,2013-05-26 14:40:00,
2013-05-26 10:45:00,59.4,45.9,30.26,WSW,254,0.0,0.0,61,0.00,,,0.00,Wunderground v.1.15,2013-05-26 14:45:00,
2013-05-26 10:50:00,59.5,46.5,30.26,South,190,0.0,0.0,62,0.00,,,0.00,Wunderground v.1.15,2013-05-26 14:50:00,
2013-05-26 10:55:00,59.7,46.7,30.26,South,190,0.0,0.0,62,0.00,,,0.00,Wunderground v.1.15,2013-05-26 14:55:00,
2013-05-26 11:00:00,59.7,45.8,30.26,South,190,0.0,0.0,60,0.00,,,0.00,Wunderground v.1.15,2013-05-26 15:00:00,
2013-05-26 11:05:00,59.7,45.8,30.26,SSW,194,0.0,0.0,60,0.00,,,0.00,Wunderground v.1.15,2013-05-26 15:05:00,
2013-05-26 11:10:00,59.8,47.6,30.26,SSW,194,0.0,0.0,64,0.00,,,0.00,Wunderground v.1.15,2013-05-26 15:10:00,
2013-05-26 11:15:00,60.0,46.1,30.25,SSW,194,0.0,0.0,60,0.00,,,0.00,Wunderground v.1.15,2013-05-26 15:15:00,
2013-05-26 11:20:00,60.1,46.2,30.25,SSW,192,0.0,0.0,60,0.00,,,0.00,Wunderground v.1.15,2013-05-26 15:20:00,
2013-05-26 11:25:00,60.5,47.0,30.25,SSW,192,0.0,0.0,61,0.00,,,0.00,Wunderground v.1.15,2013-05-26 15:25:00,
2013-05-26 11:30:00,60.8,42.0,30.25,SSW,200,0.0,0.0,50,0.00,,,0.00,Wunderground v.1.15,2013-05-26 15:30:00,
2013-05-26 11:35:00,60.8,38.7,30.25,SSE,166,0.0,1.0,44,0.00,,,0.00,Wunderground v.1.15,2013-05-26 15:35:00,
2013-05-26 11:40:00,61.2,39.7,30.25,SSE,166,0.0,0.0,45,0.00,,,0.00,Wunderground v.1.15,2013-05-26 15:40:00,
2013-05-26 11:45:00,61.6,41.7,30.24,SSE,166,0.0,0.0,48,0.00,,,0.00,Wunderground v.1.15,2013-05-26 15:45:00,
2013-05-26 11:50:00,61.9,42.0,30.24,SSE,166,0.0,0.0,48,0.00,,,0.00,Wunderground v.1.15,2013-05-26 15:50:00,
2013-05-26 11:55:00,62.2,40.6,30.24,SSE,166,0.0,0.0,45,0.00,,,0.00,Wunderground v.1.15,2013-05-26 15:55:00,
2013-05-26 12:00:00,62.5,39.7,30.24,SSE,166,0.0,0.0,43,0.00,,,0.00,Wunderground v.1.15,2013-05-26 16:00:00,
2013-05-26 12:05:00,62.8,41.1,30.24,South,169,0.0,0.0,45,0.00,,,0.00,Wunderground v.1.15,2013-05-26 16:05:00,
2013-05-26 12:10:00,63.0,40.1,30.24,South,169,0.0,0.0,43,0.00,,,0.00,Wunderground v.1.15,2013-05-26 16:10:00,
2013-05-26 12:15:00,63.3,39.8,30.24,South,169,0.0,0.0,42,0.00,,,0.00,Wunderground v.1.15,2013-05-26 16:15:00,
2013-05-26 12:20:00,63.7,40.2,30.24,South,169,0.0,0.0,42,0.00,,,0.00,Wunderground v.1.15,2013-05-26 16:20:00,
2013-05-26 12:25:00,64.0,41.6,30.24,South,169,0.0,0.0,44,0.00,,,0.00,Wunderground v.1.15,2013-05-26 16:25:00,
2013-05-26 12:30:00,64.3,40.7,30.24,South,169,0.0,0.0,42,0.00,,,0.00,Wunderground v.1.15,2013-05-26 16:30:00,
2013-05-26 12:35:00,64.6,42.2,30.24,South,173,0.0,0.0,44,0.00,,,0.00,Wunderground v.1.15,2013-05-26 16:35:00,
2013-05-26 12:40:00,64.8,41.8,30.23,South,173,0.0,0.0,43,0.00,,,0.00,Wunderground v.1.15,2013-05-26 16:40:00,
2013-05-26 12:45:00,64.9,42.5,30.23,South,173,0.0,0.0,44,0.00,,,0.00,Wunderground v.1.15,2013-05-26 16:45:00,
2013-05-26 12:50:00,65.1,43.2,30.23,SSW,207,0.0,0.0,45,0.00,,,0.00,Wunderground v.1.15,2013-05-26 16:50:00,
2013-05-26 12:55:00,65.3,41.6,30.23,SSW,207,0.0,0.0,42,0.00,,,0.00,Wunderground v.1.15,2013-05-26 16:55:00,
2013-05-26 13:00:00,65.6,41.3,30.23,SW,221,0.0,1.0,41,0.00,,,0.00,Wunderground v.1.15,2013-05-26 17:00:00,
2013-05-26 13:05:00,65.6,40.0,30.23,SW,216,2.0,2.0,39,0.00,,,0.00,Wunderground v.1.15,2013-05-26 17:05:00,
2013-05-26 13:10:00,65.8,40.8,30.23,SW,215,1.0,1.0,40,0.00,,,0.00,Wunderground v.1.15,2013-05-26 17:10:00,
2013-05-26 13:15:00,65.9,42.1,30.23,SW,230,1.0,2.0,42,0.00,,,0.00,Wunderground v.1.15,2013-05-26 17:15:00,
2013-05-26 13:20:00,66.3,40.6,30.22,SW,232,1.0,1.0,39,0.00,,,0.00,Wunderground v.1.15,2013-05-26 17:20:00,
2013-05-26 13:25:00,66.3,39.9,30.23,South,173,1.0,1.0,38,0.00,,,0.00,Wunderground v.1.15,2013-05-26 17:25:00,
2013-05-26 13:30:00,66.3,41.9,30.22,South,173,1.0,1.0,41,0.00,,,0.00,Wunderground v.1.15,2013-05-26 17:30:00,
2013-05-26 13:40:00,66.4,40.7,30.22,SSW,211,1.0,1.0,39,0.00,,,0.00,Wunderground v.1.15,2013-05-26 17:40:00,
2013-05-26 13:45:00,66.4,39.3,30.21,SSW,206,0.0,2.0,37,0.00,,,0.00,Wunderground v.1.15,2013-05-26 17:45:00,
2013-05-26 13:50:00,66.6,40.2,30.20,South,189,1.0,2.0,38,0.00,,,0.00,Wunderground v.1.15,2013-05-26 17:50:00,
2013-05-26 13:55:00,66.8,42.3,30.20,South,191,1.0,2.0,41,0.00,,,0.00,Wunderground v.1.15,2013-05-26 17:55:00,
2013-05-26 14:00:00,66.6,40.2,30.20,South,191,1.0,2.0,38,0.00,,,0.00,Wunderground v.1.15,2013-05-26 18:00:00,
2013-05-26 14:05:00,66.9,41.1,30.19,South,191,0.0,2.0,39,0.00,,,0.00,Wunderground v.1.15,2013-05-26 18:05:00,
2013-05-26 14:10:00,67.1,43.8,30.20,South,191,0.0,0.0,43,0.00,,,0.00,Wunderground v.1.15,2013-05-26 18:10:00,
2013-05-26 14:15:00,67.1,42.0,30.19,South,191,0.0,0.0,40,0.00,,,0.00,Wunderground v.1.15,2013-05-26 18:15:00,
2013-05-26 14:20:00,67.3,44.0,30.19,South,191,0.0,0.0,43,0.00,,,0.00,Wunderground v.1.15,2013-05-26 18:20:00,
2013-05-26 14:30:00,67.4,41.6,30.19,South,191,0.0,0.0,39,0.00,,,0.00,Wunderground v.1.15,2013-05-26 18:30:00,
2013-05-26 14:35:00,67.4,41.6,30.19,SSE,163,0.0,0.0,39,0.00,,,0.00,Wunderground v.1.15,2013-05-26 18:35:00,
2013-05-26 14:40:00,67.6,43.1,30.19,South,174,0.0,2.0,41,0.00,,,0.00,Wunderground v.1.15,2013-05-26 18:40:00,
2013-05-26 14:50:00,67.8,43.2,30.19,SW,217,1.0,1.0,41,0.00,,,0.00,Wunderground v.1.15,2013-05-26 18:50:00,
2013-05-26 14:55:00,67.8,43.2,30.19,SW,217,0.0,1.0,41,0.00,,,0.00,Wunderground v.1.15,2013-05-26 18:55:00,
2013-05-26 15:00:00,68.1,44.7,30.19,SW,223,1.0,1.0,43,0.00,,,0.00,Wunderground v.1.15,2013-05-26 19:00:00,
2013-05-26 15:10:00,68.4,42.5,30.19,SW,223,0.0,0.0,39,0.00,,,0.00,Wunderground v.1.15,2013-05-26 19:10:00,
2013-05-26 15:15:00,68.4,43.1,30.19,SW,223,0.0,0.0,40,0.00,,,0.00,Wunderground v.1.15,2013-05-26 19:15:00,
2013-05-26 15:20:00,68.4,43.1,30.19,SW,223,0.0,0.0,40,0.00,,,0.00,Wunderground v.1.15,2013-05-26 19:20:00,
2013-05-26 15:25:00,68.4,43.8,30.18,SW,224,0.0,0.0,41,0.00,,,0.00,Wunderground v.1.15,2013-05-26 19:25:00,
2013-05-26 15:30:00,68.3,42.4,30.18,SW,224,0.0,0.0,39,0.00,,,0.00,Wunderground v.1.15,2013-05-26 19:30:00,
2013-05-26 15:40:00,68.4,45.0,30.18,SW,223,0.0,1.0,43,0.00,,,0.00,Wunderground v.1.15,2013-05-26 19:40:00,
2013-05-26 15:45:00,68.6,44.6,30.18,SW,224,0.0,2.0,42,0.00,,,0.00,Wunderground v.1.15,2013-05-26 19:45:00,
2013-05-26 15:50:00,68.9,44.2,30.18,SW,224,0.0,0.0,41,0.00,,,0.00,Wunderground v.1.15,2013-05-26 19:50:00,
2013-05-26 16:00:00,68.9,44.9,30.18,SW,224,0.0,0.0,42,0.00,,,0.00,Wunderground v.1.15,2013-05-26 20:00:00,
2013-05-26 16:10:00,68.8,45.4,30.17,SW,226,0.0,0.0,43,0.00,,,0.00,Wunderground v.1.15,2013-05-26 20:10:00,
2013-05-26 16:15:00,68.8,46.0,30.17,SW,226,0.0,0.0,44,0.00,,,0.00,Wunderground v.1.15,2013-05-26 20:15:00,
2013-05-26 16:20:00,68.8,44.1,30.17,SW,226,0.0,0.0,41,0.00,,,0.00,Wunderground v.1.15,2013-05-26 20:20:00,
2013-05-26 16:25:00,68.8,45.4,30.17,SW,226,0.0,0.0,43,0.00,,,0.00,Wunderground v.1.15,2013-05-26 20:25:00,
2013-05-26 16:30:00,68.9,45.5,30.17,SW,226,0.0,0.0,43,0.00,,,0.00,Wunderground v.1.15,2013-05-26 20:30:00,
2013-05-26 16:35:00,68.9,44.9,30.17,SW,226,0.0,0.0,42,0.00,,,0.00,Wunderground v.1.15,2013-05-26 20:35:00,
2013-05-26 16:40:00,69.1,43.8,30.16,SW,228,0.0,0.0,40,0.00,,,0.00,Wunderground v.1.15,2013-05-26 20:40:00,
2013-05-26 16:45:00,69.1,44.4,30.16,SW,227,0.0,0.0,41,0.00,,,0.00,Wunderground v.1.15,2013-05-26 20:45:00,
2013-05-26 16:50:00,69.1,45.7,30.16,SW,228,0.0,0.0,43,0.00,,,0.00,Wunderground v.1.15,2013-05-26 20:50:00,
2013-05-26 16:55:00,69.3,45.8,30.16,SW,228,0.0,0.0,43,0.00,,,0.00,Wunderground v.1.15,2013-05-26 20:55:00,
2013-05-26 17:00:00,69.3,45.2,30.16,WSW,248,0.0,0.0,42,0.00,,,0.00,Wunderground v.1.15,2013-05-26 21:00:00,
2013-05-26 17:05:00,69.3,43.9,30.16,WSW,248,0.0,0.0,40,0.00,,,0.00,Wunderground v.1.15,2013-05-26 21:05:00,
2013-05-26 17:10:00,69.4,44.0,30.16,WSW,248,0.0,0.0,40,0.00,,,0.00,Wunderground v.1.15,2013-05-26 21:10:00,
2013-05-26 17:15:00,69.4,45.3,30.16,WSW,248,0.0,0.0,42,0.00,,,0.00,Wunderground v.1.15,2013-05-26 21:15:00,
2013-05-26 17:20:00,69.4,45.3,30.16,WSW,248,0.0,0.0,42,0.00,,,0.00,Wunderground v.1.15,2013-05-26 21:20:00,
2013-05-26 17:25:00,69.4,47.1,30.16,WSW,248,0.0,0.0,45,0.00,,,0.00,Wunderground v.1.15,2013-05-26 21:25:00,
2013-05-26 17:30:00,69.6,47.3,30.16,SE,127,0.0,0.0,45,0.00,,,0.00,Wunderground v.1.15,2013-05-26 21:30:00,
2013-05-26 17:35:00,69.4,47.7,30.16,SE,127,0.0,0.0,46,0.00,,,0.00,Wunderground v.1.15,2013-05-26 21:35:00,
2013-05-26 17:40:00,69.4,45.3,30.16,SE,127,0.0,0.0,42,0.00,,,0.00,Wunderground v.1.15,2013-05-26 21:40:00,
2013-05-26 17:45:00,69.4,44.7,30.16,SE,127,0.0,0.0,41,0.00,,,0.00,Wunderground v.1.15,2013-05-26 21:45:00,
2013-05-26 17:50:00,69.6,44.8,30.16,SE,127,0.0,0.0,41,0.00,,,0.00,Wunderground v.1.15,2013-05-26 21:50:00,
2013-05-26 17:55:00,69.6,47.3,30.16,SE,127,0.0,0.0,45,0.00,,,0.00,Wunderground v.1.15,2013-05-26 21:55:00,
2013-05-26 18:00:00,69.6,46.7,30.16,SE,127,0.0,0.0,44,0.00,,,0.00,Wunderground v.1.15,2013-05-26 22:00:00,
2013-05-26 18:10:00,69.6,47.3,30.16,SE,127,0.0,0.0,45,0.00,,,0.00,Wunderground v.1.15,2013-05-26 22:10:00,
2013-05-26 18:15:00,69.6,45.5,30.16,SE,127,0.0,0.0,42,0.00,,,0.00,Wunderground v.1.15,2013-05-26 22:15:00,
2013-05-26 18:20:00,69.4,44.7,30.16,SE,127,0.0,0.0,41,0.00,,,0.00,Wunderground v.1.15,2013-05-26 22:20:00,
2013-05-26 18:25:00,69.4,47.1,30.16,SE,127,0.0,0.0,45,0.00,,,0.00,Wunderground v.1.15,2013-05-26 22:25:00,
2013-05-26 18:30:00,69.4,46.5,30.16,SE,128,0.0,0.0,44,0.00,,,0.00,Wunderground v.1.15,2013-05-26 22:30:00,
2013-05-26 18:35:00,69.4,48.3,30.16,SE,128,0.0,0.0,47,0.00,,,0.00,Wunderground v.1.15,2013-05-26 22:35:00,
2013-05-26 18:40:00,69.3,47.0,30.16,SE,128,0.0,0.0,45,0.00,,,0.00,Wunderground v.1.15,2013-05-26 22:40:00,
2013-05-26 18:45:00,69.3,47.6,30.16,SE,128,0.0,0.0,46,0.00,,,0.00,Wunderground v.1.15,2013-05-26 22:45:00,
2013-05-26 18:50:00,69.1,46.9,30.16,SE,128,0.0,0.0,45,0.00,,,0.00,Wunderground v.1.15,2013-05-26 22:50:00,
2013-05-26 18:55:00,69.1,46.9,30.16,SE,128,0.0,0.0,45,0.00,,,0.00,Wunderground v.1.15,2013-05-26 22:55:00,
2013-05-26 19:00:00,69.1,48.0,30.16,SE,127,0.0,0.0,47,0.00,,,0.00,Wunderground v.1.15,2013-05-26 23:00:00,
2013-05-26 19:10:00,68.8,47.2,30.17,SE,127,0.0,0.0,46,0.00,,,0.00,Wunderground v.1.15,2013-05-26 23:10:00,
2013-05-26 19:15:00,68.8,47.7,30.16,SE,127,0.0,0.0,47,0.00,,,0.00,Wunderground v.1.15,2013-05-26 23:15:00,
2013-05-26 19:20:00,68.6,48.1,30.16,SE,127,0.0,0.0,48,0.00,,,0.00,Wunderground v.1.15,2013-05-26 23:20:00,
2013-05-26 19:25:00,68.3,49.5,30.17,SE,127,0.0,0.0,51,0.00,,,0.00,Wunderground v.1.15,2013-05-26 23:25:00,
2013-05-26 19:30:00,67.9,50.1,30.17,SE,127,0.0,0.0,53,0.00,,,0.00,Wunderground v.1.15,2013-05-26 23:30:00,
2013-05-26 19:40:00,67.4,50.7,30.17,SE,127,0.0,0.0,55,0.00,,,0.00,Wunderground v.1.15,2013-05-26 23:40:00,
2013-05-26 19:45:00,67.3,51.5,30.16,SE,127,0.0,0.0,57,0.00,,,0.00,Wunderground v.1.15,2013-05-26 23:45:00,
2013-05-26 19:50:00,67.1,51.4,30.17,SE,127,0.0,0.0,57,0.00,,,0.00,Wunderground v.1.15,2013-05-26 23:50:00,
2013-05-26 20:00:00,66.6,51.4,30.17,SE,127,0.0,0.0,58,0.00,,,0.00,Wunderground v.1.15,2013-05-27 00:00:00,
2013-05-26 20:05:00,66.4,51.6,30.17,SE,127,0.0,0.0,59,0.00,,,0.00,Wunderground v.1.15,2013-05-27 00:05:00,
2013-05-26 20:10:00,66.3,52.4,30.17,SE,127,0.0,0.0,61,0.00,,,0.00,Wunderground v.1.15,2013-05-27 00:10:00,
2013-05-26 20:15:00,65.9,52.5,30.17,SE,127,0.0,0.0,62,0.00,,,0.00,Wunderground v.1.15,2013-05-27 00:15:00,
2013-05-26 20:20:00,65.6,52.2,30.17,SE,127,0.0,0.0,62,0.00,,,0.00,Wunderground v.1.15,2013-05-27 00:20:00,
2013-05-26 20:25:00,65.3,52.4,30.17,SE,127,0.0,0.0,63,0.00,,,0.00,Wunderground v.1.15,2013-05-27 00:25:00,
2013-05-26 20:30:00,64.9,51.6,30.18,SE,127,0.0,0.0,62,0.00,,,0.00,Wunderground v.1.15,2013-05-27 00:30:00,
2013-05-26 20:35:00,64.6,51.7,30.18,SE,127,0.0,0.0,63,0.00,,,0.00,Wunderground v.1.15,2013-05-27 00:35:00,
2013-05-26 20:40:00,64.3,51.9,30.18,SE,127,0.0,0.0,64,0.00,,,0.00,Wunderground v.1.15,2013-05-27 00:40:00,
2013-05-26 20:45:00,64.0,52.0,30.18,SE,127,0.0,0.0,65,0.00,,,0.00,Wunderground v.1.15,2013-05-27 00:45:00,
2013-05-26 20:50:00,63.7,51.7,30.18,SE,127,0.0,0.0,65,0.00,,,0.00,Wunderground v.1.15,2013-05-27 00:50:00,
2013-05-26 20:55:00,63.3,51.3,30.18,SE,127,0.0,0.0,65,0.00,,,0.00,Wunderground v.1.15,2013-05-27 00:55:00,
2013-05-26 21:00:00,63.2,52.1,30.18,SE,127,0.0,0.0,67,0.00,,,0.00,Wunderground v.1.15,2013-05-27 01:00:00,
2013-05-26 21:05:00,62.8,51.7,30.18,SE,127,0.0,0.0,67,0.00,,,0.00,Wunderground v.1.15,2013-05-27 01:05:00,
2013-05-26 21:15:00,62.2,51.5,30.18,SE,127,0.0,0.0,68,0.00,,,0.00,Wunderground v.1.15,2013-05-27 01:15:00,
2013-05-26 21:20:00,61.9,51.2,30.18,SE,127,0.0,0.0,68,0.00,,,0.00,Wunderground v.1.15,2013-05-27 01:20:00,
2013-05-26 21:25:00,61.7,51.4,30.18,SE,127,0.0,0.0,69,0.00,,,0.00,Wunderground v.1.15,2013-05-27 01:25:00,
2013-05-26 21:30:00,61.4,51.1,30.18,SE,127,0.0,0.0,69,0.00,,,0.00,Wunderground v.1.15,2013-05-27 01:30:00,
2013-05-26 21:35:00,61.2,51.3,30.18,SE,127,0.0,0.0,70,0.00,,,0.00,Wunderground v.1.15,2013-05-27 01:35:00,
2013-05-26 21:40:00,60.9,51.0,30.19,SE,127,0.0,0.0,70,0.00,,,0.00,Wunderground v.1.15,2013-05-27 01:40:00,
2013-05-26 21:45:00,60.8,51.7,30.19,SE,127,0.0,0.0,72,0.00,,,0.00,Wunderground v.1.15,2013-05-27 01:45:00,
2013-05-26 21:50:00,60.6,51.1,30.19,SE,127,0.0,0.0,71,0.00,,,0.00,Wunderground v.1.15,2013-05-27 01:50:00,
2013-05-26 21:55:00,60.3,51.2,30.19,SE,127,0.0,0.0,72,0.00,,,0.00,Wunderground v.1.15,2013-05-27 01:55:00,
2013-05-26 22:00:00,60.1,51.0,30.19,SE,127,0.0,0.0,72,0.00,,,0.00,Wunderground v.1.15,2013-05-27 02:00:00,
2013-05-26 22:10:00,59.7,51.4,30.20,SE,127,0.0,0.0,74,0.00,,,0.00,Wunderground v.1.15,2013-05-27 02:10:00,
2013-05-26 22:15:00,59.4,50.7,30.20,SE,127,0.0,0.0,73,0.00,,,0.00,Wunderground v.1.15,2013-05-27 02:15:00,
2013-05-26 22:20:00,59.2,50.5,30.20,SE,127,0.0,0.0,73,0.00,,,0.00,Wunderground v.1.15,2013-05-27 02:20:00,
2013-05-26 22:25:00,58.7,50.8,30.20,SE,127,0.0,0.0,75,0.00,,,0.00,Wunderground v.1.15,2013-05-27 02:25:00,
2013-05-26 22:30:00,58.6,51.1,30.20,SE,127,0.0,0.0,76,0.00,,,0.00,Wunderground v.1.15,2013-05-27 02:30:00,
2013-05-26 22:35:00,58.4,50.9,30.20,SE,127,0.0,0.0,76,0.00,,,0.00,Wunderground v.1.15,2013-05-27 02:35:00,
2013-05-26 22:40:00,58.3,50.8,30.20,SE,127,0.0,0.0,76,0.00,,,0.00,Wunderground v.1.15,2013-05-27 02:40:00,
2013-05-26 22:45:00,58.1,50.9,30.20,SE,127,0.0,0.0,77,0.00,,,0.00,Wunderground v.1.15,2013-05-27 02:45:00,
2013-05-26 22:50:00,58.0,50.8,30.20,SE,127,0.0,0.0,77,0.00,,,0.00,Wunderground v.1.15,2013-05-27 02:50:00,
2013-05-26 22:55:00,57.7,50.9,30.20,SE,127,0.0,0.0,78,0.00,,,0.00,Wunderground v.1.15,2013-05-27 02:55:00,
2013-05-26 23:00:00,57.5,50.7,30.20,SE,127,0.0,0.0,78,0.00,,,0.00,Wunderground v.1.15,2013-05-27 03:00:00,
2013-05-26 23:10:00,57.4,50.6,30.20,SE,127,0.0,0.0,78,0.00,,,0.00,Wunderground v.1.15,2013-05-27 03:10:00,
2013-05-26 23:20:00,57.1,50.6,30.20,SE,127,0.0,0.0,79,0.00,,,0.00,Wunderground v.1.15,2013-05-27 03:20:00,
2013-05-26 23:30:00,56.8,50.4,30.20,SE,127,0.0,0.0,79,0.00,,,0.00,Wunderground v.1.15,2013-05-27 03:30:00,
2013-05-26 23:35:00,56.8,50.4,30.20,SE,127,0.0,0.0,79,0.00,,,0.00,Wunderground v.1.15,2013-05-27 03:35:00,
2013-05-26 23:40:00,56.6,50.2,30.20,SE,127,0.0,0.0,79,0.00,,,0.00,Wunderground v.1.15,2013-05-27 03:40:00,
2013-05-26 23:45:00,56.5,50.4,30.20,SE,127,0.0,0.0,80,0.00,,,0.00,Wunderground v.1.15,2013-05-27 03:45:00,
2013-05-26 23:50:00,56.3,50.2,30.20,SE,127,0.0,0.0,80,0.00,,,0.00,Wunderground v.1.15,2013-05-27 03:50:00,
2013-05-26 23:55:00,56.1,50.0,30.20,SE,127,0.0,0.0,80,0.00,,,0.00,Wunderground v.1.15,2013-05-27 03:55:00,